Time;durP1;ratioP1;P1;durP2;ratioP2;P2;SDS_P1;SDS_P2;PMS_P1;PMS_P2;Temp;Humidity;BMP_temperature;BMP_pressure;BME280_temperature;BME280_humidity;BME280_pressure;Samples;Min_cycle;Max_cycle;Signal;HPM_P1;HPM_P2
2022/07/03 00:01:46;;;;;;;3.30;1.20;;;17.30;99.90;;;;;;5032496;28;20203;-76
2022/07/03 00:04:12;;;;;;;2.73;1.17;;;17.20;99.90;;;;;;5032604;28;20176;-77
2022/07/03 00:06:37;;;;;;;3.93;1.70;;;17.10;99.90;;;;;;5018140;28;20243;-76
2022/07/03 00:09:04;;;;;;;6.67;1.40;;;17.10;99.90;;;;;;5035807;28;20168;-77
2022/07/03 00:11:31;;;;;;;3.87;1.53;;;17.10;99.90;;;;;;5034611;28;20173;-77
2022/07/03 00:13:56;;;;;;;3.50;1.70;;;17.10;99.90;;;;;;5034466;28;20172;-77
2022/07/03 00:16:22;;;;;;;3.03;1.17;;;17.00;99.90;;;;;;5035530;28;20215;-77
2022/07/03 00:18:47;;;;;;;2.63;1.40;;;17.00;99.90;;;;;;5034502;28;20211;-77
2022/07/03 00:21:20;;;;;;;2.73;1.23;;;16.90;99.90;;;;;;5035996;28;20184;-77
2022/07/03 00:24:03;;;;;;;5.03;1.23;;;16.80;99.90;;;;;;5035833;28;20153;-77
2022/07/03 00:26:33;;;;;;;4.33;1.30;;;16.80;99.90;;;;;;5035751;28;20271;-77
2022/07/03 00:29:01;;;;;;;2.40;1.43;;;16.90;99.90;;;;;;5035668;28;20164;-77
2022/07/03 00:31:30;;;;;;;2.80;1.43;;;16.80;99.90;;;;;;5017714;28;20175;-76
2022/07/03 00:33:58;;;;;;;3.10;1.50;;;16.70;99.90;;;;;;5035318;28;20171;-77
2022/07/03 00:36:26;;;;;;;2.87;1.37;;;16.70;99.90;;;;;;5033964;28;20233;-77
2022/07/03 00:38:52;;;;;;;2.43;1.10;;;16.70;99.90;;;;;;5035493;28;20618;-77
2022/07/03 00:41:30;;;;;;;2.47;1.17;;;16.70;99.90;;;;;;5034104;28;20267;-77
2022/07/03 00:43:56;;;;;;;1.73;1.37;;;16.70;99.90;;;;;;5035447;28;20176;-77
2022/07/03 00:46:23;;;;;;;2.00;1.10;;;16.70;99.90;;;;;;5034064;28;20562;-77
2022/07/03 00:48:50;;;;;;;2.77;1.30;;;16.70;99.90;;;;;;5017765;28;20173;-77
2022/07/03 00:51:20;;;;;;;2.60;1.20;;;16.70;99.90;;;;;;5035207;28;20649;-76
2022/07/03 00:53:48;;;;;;;1.13;0.90;;;16.70;99.90;;;;;;5035011;28;20176;-77
2022/07/03 00:56:16;;;;;;;3.77;1.37;;;16.60;99.90;;;;;;5034920;28;20572;-76
2022/07/03 00:58:42;;;;;;;1.67;1.27;;;16.60;99.90;;;;;;5035056;28;20647;-77
2022/07/03 01:01:10;;;;;;;3.00;1.17;;;16.40;99.90;;;;;;5035153;28;20176;-76
2022/07/03 01:03:42;;;;;;;2.83;1.13;;;16.50;99.90;;;;;;5017222;28;20641;-77
2022/07/03 01:06:15;;;;;;;4.97;1.10;;;16.50;99.90;;;;;;5033502;28;20212;-76
2022/07/03 01:08:53;;;;;;;1.70;1.00;;;16.50;99.90;;;;;;5034815;28;20153;-76
2022/07/03 01:11:26;;;;;;;2.93;1.07;;;16.40;99.90;;;;;;5017109;28;20204;-76
2022/07/03 01:14:10;;;;;;;2.67;1.40;;;16.40;99.90;;;;;;5034799;28;20215;-77
2022/07/03 01:16:58;;;;;;;2.97;1.13;;;16.30;99.90;;;;;;5033696;28;20672;-77
2022/07/03 01:19:44;;;;;;;2.40;1.03;;;16.30;99.90;;;;;;5034424;28;20210;-77
2022/07/03 01:22:27;;;;;;;2.73;1.17;;;16.20;99.90;;;;;;5034303;28;20225;-77
2022/07/03 01:25:14;;;;;;;1.23;1.13;;;16.10;99.90;;;;;;5016608;28;20223;-77
2022/07/03 01:27:47;;;;;;;1.50;1.00;;;16.20;99.90;;;;;;5034479;28;20504;-77
2022/07/03 01:30:13;;;;;;;1.30;1.10;;;16.10;99.90;;;;;;5034150;28;20227;-77
2022/07/03 01:32:44;;;;;;;2.30;1.00;;;16.10;99.90;;;;;;5034247;28;20240;-77
2022/07/03 01:35:13;;;;;;;1.53;1.30;;;16.10;99.90;;;;;;5034115;28;20192;-76
2022/07/03 01:37:40;;;;;;;3.73;1.13;;;16.10;99.90;;;;;;5034110;28;20180;-77
2022/07/03 01:40:07;;;;;;;1.93;1.10;;;16.00;99.90;;;;;;5034113;28;20195;-76
2022/07/03 01:42:37;;;;;;;1.67;1.30;;;16.00;99.90;;;;;;5032794;28;20176;-77
2022/07/03 01:45:03;;;;;;;1.90;1.10;;;15.90;99.90;;;;;;5033852;28;20188;-78
2022/07/03 01:47:30;;;;;;;3.57;1.17;;;15.90;99.90;;;;;;5034190;28;20194;-77
2022/07/03 01:49:56;;;;;;;2.60;1.20;;;15.90;99.90;;;;;;5033875;28;20168;-76
2022/07/03 01:52:22;;;;;;;1.70;1.10;;;15.90;99.90;;;;;;5032508;28;20176;-75
2022/07/03 01:54:49;;;;;;;1.77;1.13;;;15.90;99.90;;;;;;5033780;28;20211;-76
2022/07/03 01:57:15;;;;;;;1.93;1.33;;;15.90;99.90;;;;;;5016031;28;20230;-76
2022/07/03 01:59:41;;;;;;;1.90;1.10;;;15.80;99.90;;;;;;5016022;28;20180;-77
2022/07/03 02:02:27;;;;;;;2.50;1.20;;;15.80;99.90;;;;;;5032413;28;20194;-77
2022/07/03 02:05:02;;;;;;;3.67;1.40;;;15.70;99.90;;;;;;5033742;28;20284;-76
2022/07/03 02:07:48;;;;;;;3.23;1.23;;;15.70;99.90;;;;;;5033559;28;20247;-77
2022/07/03 02:10:17;;;;;;;1.97;1.30;;;15.70;99.90;;;;;;5033796;28;20222;-76
2022/07/03 02:12:42;;;;;;;1.40;1.10;;;15.70;99.90;;;;;;5033513;28;20168;-77
2022/07/03 02:15:09;;;;;;;2.00;1.40;;;15.70;99.90;;;;;;5033213;28;20593;-77
2022/07/03 02:17:43;;;;;;;1.53;1.30;;;15.60;99.90;;;;;;5033440;28;20176;-76
2022/07/03 02:20:10;;;;;;;2.40;1.20;;;15.60;99.90;;;;;;5033416;28;20171;-77
2022/07/03 02:22:52;;;;;;;1.43;1.20;;;15.50;99.90;;;;;;5015584;28;20180;-77
2022/07/03 02:25:32;;;;;;;4.63;1.27;;;15.50;99.90;;;;;;5015640;28;20295;-76
2022/07/03 02:28:30;;;;;;;2.13;0.97;;;15.50;99.90;;;;;;5015527;28;20238;-76
2022/07/03 02:30:59;;;;;;;5.70;1.30;;;15.50;99.90;;;;;;5033224;28;20195;-77
2022/07/03 02:33:28;;;;;;;2.00;1.10;;;15.40;99.90;;;;;;5015392;28;20184;-76
2022/07/03 02:35:56;;;;;;;3.50;1.30;;;15.40;99.90;;;;;;5033085;28;20196;-77
2022/07/03 02:38:24;;;;;;;3.13;1.33;;;15.40;99.90;;;;;;5031834;28;20191;-77
2022/07/03 02:41:14;;;;;;;2.23;1.30;;;15.30;99.90;;;;;;5033330;28;20180;-77
2022/07/03 02:43:59;;;;;;;1.33;1.10;;;15.30;99.90;;;;;;5004191;28;20188;-77
2022/07/03 02:46:49;;;;;;;2.57;1.00;;;15.30;99.90;;;;;;5015245;28;20581;-77
2022/07/03 02:49:42;;;;;;;2.40;1.40;;;15.30;99.90;;;;;;5032967;28;20164;-77
2022/07/03 02:52:17;;;;;;;1.10;0.90;;;15.30;99.90;;;;;;5033294;28;20161;-76
2022/07/03 02:54:47;;;;;;;1.73;1.47;;;15.30;99.90;;;;;;5033095;28;20294;-76
2022/07/03 02:57:18;;;;;;;1.80;1.00;;;15.20;99.90;;;;;;5032997;28;20299;-76
2022/07/03 02:59:54;;;;;;;3.17;1.53;;;15.20;99.90;;;;;;5031670;28;20401;-75
2022/07/03 03:02:38;;;;;;;1.77;1.30;;;15.30;99.90;;;;;;5015086;28;20592;-77
2022/07/03 03:05:15;;;;;;;1.90;1.30;;;15.20;99.90;;;;;;5032610;28;20290;-77
2022/07/03 03:08:13;;;;;;;2.80;1.20;;;15.10;99.90;;;;;;5032889;28;20175;-77
2022/07/03 03:10:40;;;;;;;5.00;1.30;;;15.10;99.90;;;;;;5033127;28;20184;-77
2022/07/03 03:13:13;;;;;;;1.80;1.60;;;15.10;99.90;;;;;;5031543;28;20176;-76
2022/07/03 03:15:59;;;;;;;1.43;1.20;;;15.00;99.90;;;;;;5015130;28;20583;-75
2022/07/03 03:18:27;;;;;;;1.87;1.27;;;15.00;99.90;;;;;;5033359;28;20195;-76
2022/07/03 03:20:58;;;;;;;1.47;1.13;;;15.00;99.90;;;;;;5032667;28;20172;-76
2022/07/03 03:23:34;;;;;;;1.90;1.43;;;14.90;99.90;;;;;;5014885;28;20180;-77
2022/07/03 03:26:00;;;;;;;3.40;1.67;;;14.80;99.90;;;;;;5032507;28;20210;-75
2022/07/03 03:28:26;;;;;;;1.73;1.30;;;14.80;99.90;;;;;;5014920;28;20267;-77
2022/07/03 03:30:51;;;;;;;1.67;1.40;;;14.80;99.90;;;;;;5014961;28;20180;-77
2022/07/03 03:33:18;;;;;;;2.13;1.33;;;14.80;99.90;;;;;;5032812;28;20214;-76
2022/07/03 03:35:44;;;;;;;3.33;1.47;;;14.70;99.90;;;;;;5032488;28;20204;-76
2022/07/03 03:38:11;;;;;;;2.17;1.10;;;14.70;99.90;;;;;;5014983;28;20604;-75
2022/07/03 03:40:37;;;;;;;2.47;1.37;;;14.70;99.90;;;;;;5036313;28;20173;-77
2022/07/03 03:43:03;;;;;;;3.03;1.40;;;14.60;99.90;;;;;;5036572;28;20267;-77
2022/07/03 03:45:28;;;;;;;4.27;1.33;;;14.60;99.90;;;;;;5018275;28;20200;-77
2022/07/03 03:47:54;;;;;;;2.43;1.37;;;14.60;99.90;;;;;;5036171;28;20176;-77
2022/07/03 03:50:20;;;;;;;2.07;1.50;;;14.60;99.90;;;;;;5036057;28;20173;-76
2022/07/03 03:52:45;;;;;;;1.13;1.03;;;14.60;99.90;;;;;;5036024;28;20183;-77
2022/07/03 03:55:11;;;;;;;1.87;1.37;;;14.60;99.90;;;;;;5018244;28;20293;-77
2022/07/03 03:57:37;;;;;;;1.37;1.10;;;14.50;99.90;;;;;;5034718;28;20175;-77
2022/07/03 04:00:04;;;;;;;1.80;1.40;;;14.50;99.90;;;;;;5035963;28;20180;-76
2022/07/03 04:02:30;;;;;;;1.50;1.30;;;14.50;99.90;;;;;;5035838;28;20531;-76
2022/07/03 04:04:56;;;;;;;5.07;1.47;;;14.50;99.90;;;;;;5035870;28;20227;-77
2022/07/03 04:07:22;;;;;;;1.47;1.30;;;14.50;99.90;;;;;;5035846;28;20543;-77
2022/07/03 04:09:47;;;;;;;8.20;1.60;;;14.40;99.90;;;;;;5035824;28;20176;-76
2022/07/03 04:12:13;;;;;;;5.33;1.40;;;14.50;99.90;;;;;;5035684;28;20172;-76
2022/07/03 04:14:39;;;;;;;1.53;1.10;;;14.50;99.90;;;;;;5035502;28;20212;-77
2022/07/03 04:17:04;;;;;;;2.40;1.13;;;14.50;99.90;;;;;;5036191;28;20161;-76
2022/07/03 04:19:30;;;;;;;2.50;1.43;;;14.50;99.90;;;;;;5036195;28;20184;-76
2022/07/03 04:21:56;;;;;;;1.80;1.17;;;14.50;99.90;;;;;;5035733;28;20202;-76
2022/07/03 04:24:21;;;;;;;2.93;1.40;;;14.40;99.90;;;;;;5034042;28;20207;-77
2022/07/03 04:26:47;;;;;;;2.03;1.33;;;14.50;99.90;;;;;;5035501;28;20172;-77
2022/07/03 04:29:13;;;;;;;2.83;1.47;;;14.50;99.90;;;;;;5035616;28;20183;-76
2022/07/03 04:31:38;;;;;;;1.73;1.10;;;14.50;99.90;;;;;;5035706;28;20173;-77
2022/07/03 04:34:04;;;;;;;2.03;1.53;;;14.60;99.90;;;;;;5035523;28;20214;-77
2022/07/03 04:36:29;;;;;;;3.87;1.60;;;14.70;99.90;;;;;;5017461;28;20190;-77
2022/07/03 04:38:55;;;;;;;4.67;1.30;;;14.70;99.90;;;;;;5035230;28;20261;-77
2022/07/03 04:41:21;;;;;;;1.53;1.10;;;14.70;99.90;;;;;;5035207;28;20187;-77
2022/07/03 04:43:46;;;;;;;1.50;1.20;;;14.70;99.90;;;;;;5035495;28;20180;-76
2022/07/03 04:46:12;;;;;;;1.23;1.10;;;14.70;99.90;;;;;;5017204;28;20204;-76
2022/07/03 04:48:37;;;;;;;3.13;1.27;;;14.70;99.90;;;;;;5034971;28;20184;-76
2022/07/03 04:51:03;;;;;;;2.03;1.10;;;14.70;99.90;;;;;;5032536;28;20203;-76
2022/07/03 04:53:28;;;;;;;2.33;1.10;;;14.80;99.90;;;;;;5034672;28;20168;-76
2022/07/03 04:55:54;;;;;;;2.43;1.00;;;14.80;99.90;;;;;;5034033;28;20207;-77
2022/07/03 04:58:19;;;;;;;1.10;0.90;;;14.80;99.90;;;;;;5017084;28;20287;-77
2022/07/03 05:00:45;;;;;;;1.73;1.10;;;14.80;99.90;;;;;;5034720;28;20263;-76
2022/07/03 05:03:12;;;;;;;2.03;1.10;;;14.80;99.90;;;;;;5034716;28;20177;-76
2022/07/03 05:05:37;;;;;;;1.77;1.17;;;14.80;99.90;;;;;;5034562;28;20743;-75
2022/07/03 05:08:03;;;;;;;2.03;1.20;;;14.80;99.90;;;;;;5034651;28;20177;-77
2022/07/03 05:10:29;;;;;;;2.90;1.47;;;14.80;99.90;;;;;;5034548;28;20259;-77
2022/07/03 05:12:54;;;;;;;1.30;1.13;;;14.80;99.90;;;;;;5034750;28;20176;-76
2022/07/03 05:15:20;;;;;;;1.87;1.30;;;14.80;99.90;;;;;;5035573;28;20219;-76
2022/07/03 05:17:46;;;;;;;1.57;1.00;;;14.80;99.90;;;;;;5016698;28;20176;-76
2022/07/03 05:20:24;;;;;;;1.63;1.20;;;14.90;99.90;;;;;;5034514;28;20173;-77
2022/07/03 05:22:53;;;;;;;2.97;1.20;;;14.90;99.90;;;;;;5034704;28;20226;-77
2022/07/03 05:25:19;;;;;;;1.37;1.07;;;14.90;99.90;;;;;;5034381;28;20200;-77
2022/07/03 05:27:45;;;;;;;1.93;1.00;;;15.00;99.90;;;;;;5016574;28;20259;-77
2022/07/03 05:30:11;;;;;;;1.27;1.17;;;15.00;99.90;;;;;;5034190;28;20168;-77
2022/07/03 05:32:37;;;;;;;1.63;1.30;;;15.10;99.90;;;;;;5034157;28;20178;-77
2022/07/03 05:35:03;;;;;;;2.87;1.50;;;15.10;99.90;;;;;;5034076;28;20279;-77
2022/07/03 05:37:28;;;;;;;2.93;1.43;;;15.10;99.90;;;;;;5033964;28;20208;-76
2022/07/03 05:39:54;;;;;;;1.70;1.20;;;15.20;99.90;;;;;;5016897;28;20184;-77
2022/07/03 05:42:19;;;;;;;2.47;1.40;;;15.20;99.90;;;;;;5034096;28;20714;-76
2022/07/03 05:44:45;;;;;;;3.97;1.70;;;15.30;99.90;;;;;;5032699;28;20204;-76
2022/07/03 05:47:10;;;;;;;1.90;1.60;;;15.40;99.90;;;;;;5033880;28;20172;-77
2022/07/03 05:49:36;;;;;;;2.47;2.13;;;15.40;99.90;;;;;;5033883;28;20163;-77
2022/07/03 05:52:02;;;;;;;2.10;1.43;;;15.50;99.90;;;;;;5033936;28;20672;-76
2022/07/03 05:54:27;;;;;;;2.97;1.30;;;15.60;99.90;;;;;;5033941;28;20193;-76
2022/07/03 05:56:53;;;;;;;2.33;1.57;;;15.60;99.90;;;;;;5033680;28;20168;-75
2022/07/03 05:59:18;;;;;;;2.23;1.30;;;15.70;99.90;;;;;;5033626;28;20172;-76
2022/07/03 06:01:44;;;;;;;3.27;1.47;;;15.80;99.90;;;;;;5033559;28;20530;-76
2022/07/03 06:04:09;;;;;;;3.93;2.97;;;15.80;99.90;;;;;;5033507;28;20650;-76
2022/07/03 06:06:35;;;;;;;3.50;3.10;;;16.00;99.90;;;;;;5033737;28;20195;-76
2022/07/03 06:09:01;;;;;;;4.73;2.70;;;16.30;99.90;;;;;;5033753;28;20602;-76
2022/07/03 06:11:26;;;;;;;5.63;3.07;;;16.50;99.90;;;;;;5015713;28;20179;-76
2022/07/03 06:13:52;;;;;;;3.43;2.60;;;16.70;99.90;;;;;;5032150;28;20673;-76
2022/07/03 06:16:18;;;;;;;3.17;2.13;;;16.90;99.90;;;;;;5033212;28;20208;-76
2022/07/03 06:18:44;;;;;;;5.00;2.60;;;16.90;99.90;;;;;;5033293;28;20199;-75
2022/07/03 06:21:09;;;;;;;4.23;2.87;;;17.00;99.90;;;;;;5033209;28;20203;-76
2022/07/03 06:23:35;;;;;;;2.93;2.40;;;17.30;99.90;;;;;;5031910;28;20199;-76
2022/07/03 06:26:01;;;;;;;5.97;2.20;;;17.50;99.90;;;;;;5033319;28;20203;-75
2022/07/03 06:28:26;;;;;;;6.37;2.80;;;17.50;99.90;;;;;;5033109;28;20168;-76
2022/07/03 06:30:52;;;;;;;3.07;2.30;;;17.90;99.90;;;;;;5033195;28;20573;-76
2022/07/03 06:33:18;;;;;;;3.33;2.43;;;18.00;99.90;;;;;;5033504;28;20168;-76
2022/07/03 06:35:43;;;;;;;4.67;2.40;;;18.00;99.90;;;;;;5032958;28;20204;-76
2022/07/03 06:38:09;;;;;;;2.90;2.37;;;18.20;99.90;;;;;;5033251;28;20180;-75
2022/07/03 06:40:35;;;;;;;3.70;2.13;;;18.30;99.90;;;;;;5031799;28;20190;-76
2022/07/03 06:43:01;;;;;;;4.27;2.57;;;18.20;99.90;;;;;;5031897;28;20180;-76
2022/07/03 06:45:26;;;;;;;5.07;2.70;;;18.30;99.90;;;;;;5032903;28;20242;-76
2022/07/03 06:47:52;;;;;;;5.17;2.50;;;18.40;99.90;;;;;;5032939;28;20199;-76
2022/07/03 06:50:17;;;;;;;4.23;2.17;;;18.40;99.90;;;;;;5015170;28;20176;-76
2022/07/03 06:52:43;;;;;;;6.97;2.97;;;18.40;99.90;;;;;;5033065;28;20172;-75
2022/07/03 06:55:09;;;;;;;8.10;3.20;;;18.50;99.90;;;;;;5032939;28;20188;-76
2022/07/03 06:57:34;;;;;;;7.77;3.30;;;18.50;99.90;;;;;;5031240;28;20199;-76
2022/07/03 07:00:00;;;;;;;6.77;3.73;;;18.60;99.90;;;;;;5032953;28;20247;-76
2022/07/03 07:02:25;;;;;;;5.47;4.00;;;18.90;99.90;;;;;;5032777;28;20661;-76
2022/07/03 07:04:51;;;;;;;4.73;2.53;;;19.00;99.90;;;;;;5032659;28;20242;-76
2022/07/03 07:07:16;;;;;;;6.97;2.63;;;19.00;99.90;;;;;;5032800;28;20179;-77
2022/07/03 07:09:42;;;;;;;5.00;2.43;;;19.20;99.90;;;;;;5015131;28;20650;-76
2022/07/03 07:12:08;;;;;;;7.63;3.87;;;19.30;99.90;;;;;;5032805;28;20171;-76
2022/07/03 07:14:33;;;;;;;6.43;3.73;;;19.40;99.90;;;;;;5034950;28;20257;-76
2022/07/03 07:16:59;;;;;;;7.27;2.90;;;19.50;99.90;;;;;;5037458;28;20157;-76
2022/07/03 07:19:24;;;;;;;6.57;2.90;;;19.40;99.90;;;;;;5036769;28;20172;-76
2022/07/03 07:21:50;;;;;;;9.17;3.60;;;19.50;99.90;;;;;;5018868;28;20172;-77
2022/07/03 07:24:15;;;;;;;6.77;3.60;;;19.50;99.90;;;;;;5036494;28;20172;-76
2022/07/03 07:26:41;;;;;;;9.03;4.23;;;19.70;99.90;;;;;;5036477;28;20204;-76
2022/07/03 07:29:08;;;;;;;7.10;4.43;;;19.80;99.90;;;;;;5036689;28;20168;-76
2022/07/03 07:31:33;;;;;;;8.40;4.33;;;19.90;99.90;;;;;;5035184;28;20263;-75
2022/07/03 07:33:59;;;;;;;13.43;4.60;;;20.00;99.90;;;;;;5036532;28;20299;-76
2022/07/03 07:36:24;;;;;;;9.00;3.97;;;20.10;99.90;;;;;;5036517;28;20200;-76
2022/07/03 07:38:50;;;;;;;6.83;3.37;;;20.10;99.90;;;;;;5034944;28;20250;-76
2022/07/03 07:41:15;;;;;;;8.37;3.70;;;20.10;99.90;;;;;;5036822;28;20182;-76
2022/07/03 07:43:41;;;;;;;6.00;2.57;;;20.10;99.90;;;;;;5035080;28;20182;-76
2022/07/03 07:46:06;;;;;;;4.77;1.90;;;20.10;99.90;;;;;;5034840;28;20196;-76
2022/07/03 07:48:34;;;;;;;4.27;1.80;;;20.10;99.90;;;;;;5034926;28;20175;-76
2022/07/03 07:51:00;;;;;;;3.03;1.53;;;20.20;99.90;;;;;;5036423;28;20169;-77
2022/07/03 07:53:26;;;;;;;4.27;1.70;;;20.30;99.90;;;;;;5036046;28;20176;-76
2022/07/03 07:55:51;;;;;;;4.37;1.37;;;20.40;99.90;;;;;;5035999;28;20250;-76
2022/07/03 07:58:17;;;;;;;2.87;1.73;;;20.40;99.90;;;;;;5018274;28;20258;-76
2022/07/03 08:05:35;;;;;;;3.27;1.50;;;20.50;99.90;;;;;;5035972;28;20598;-76
2022/07/03 08:06:14;;;;;;;2.53;1.63;;;20.60;99.90;;;;;;5035804;28;20238;-76
2022/07/03 08:08:39;;;;;;;4.03;1.50;;;20.50;99.90;;;;;;5036182;28;20735;-77
2022/07/03 08:11:05;;;;;;;4.47;1.70;;;20.60;99.90;;;;;;5034595;28;20262;-76
2022/07/03 08:13:31;;;;;;;2.33;1.60;;;20.70;99.90;;;;;;5035840;28;20263;-75
2022/07/03 08:15:56;;;;;;;1.97;1.60;;;20.80;99.90;;;;;;5035642;28;20610;-76
2022/07/03 08:18:22;;;;;;;3.10;1.90;;;21.00;99.90;;;;;;5035651;28;20168;-76
2022/07/03 08:20:48;;;;;;;3.70;1.90;;;21.00;99.90;;;;;;5035608;28;20199;-76
2022/07/03 08:23:14;;;;;;;2.20;1.70;;;21.00;99.90;;;;;;5035501;28;20661;-76
2022/07/03 08:25:40;;;;;;;2.73;1.77;;;21.00;99.90;;;;;;5035437;28;20573;-75
2022/07/03 08:28:05;;;;;;;1.80;1.57;;;21.00;99.90;;;;;;5034173;28;20561;-76
2022/07/03 08:30:31;;;;;;;3.87;1.67;;;21.10;99.90;;;;;;5035412;28;20173;-77
2022/07/03 08:32:58;;;;;;;2.80;1.47;;;21.20;99.90;;;;;;5035324;28;20173;-77
2022/07/03 08:35:23;;;;;;;1.97;1.30;;;21.30;99.90;;;;;;5035355;28;20192;-76
2022/07/03 08:37:50;;;;;;;2.17;1.40;;;21.30;99.90;;;;;;5035571;28;20176;-75
2022/07/03 08:40:17;;;;;;;3.27;1.90;;;21.30;99.90;;;;;;5035236;28;20176;-76
2022/07/03 08:42:54;;;;;;;4.27;1.60;;;21.40;99.90;;;;;;5035478;28;20634;-77
2022/07/03 08:45:21;;;;;;;2.83;1.40;;;21.50;99.90;;;;;;5035035;28;20199;-76
2022/07/03 08:47:48;;;;;;;2.73;1.40;;;21.60;99.90;;;;;;5035436;28;20179;-76
2022/07/03 08:50:17;;;;;;;2.70;1.60;;;21.60;99.90;;;;;;5035063;28;20179;-76
2022/07/03 08:52:43;;;;;;;5.67;2.17;;;21.60;99.90;;;;;;5035286;28;20648;-77
2022/07/03 08:55:10;;;;;;;2.10;1.47;;;21.70;93.30;;;;;;5017164;28;20196;-76
2022/07/03 08:57:37;;;;;;;4.00;1.60;;;21.70;95.00;;;;;;5035239;28;20264;-76
2022/07/03 09:00:06;;;;;;;3.37;1.60;;;21.90;56.80;;;;;;5017145;28;20180;-76
2022/07/03 09:02:32;;;;;;;4.77;1.70;;;21.90;78.20;;;;;;5034846;28;20173;-75
2022/07/03 09:04:59;;;;;;;1.87;1.50;;;21.90;29.20;;;;;;5034684;28;20223;-77
2022/07/03 09:07:34;;;;;;;1.63;1.33;;;21.90;56.30;;;;;;5034780;28;20191;-76
2022/07/03 09:09:59;;;;;;;3.57;1.40;;;22.00;41.30;;;;;;5035001;28;20244;-76
2022/07/03 09:12:25;;;;;;;2.03;1.20;;;22.00;61.50;;;;;;5034625;28;20255;-76
2022/07/03 09:14:51;;;;;;;1.73;1.13;;;22.10;57.00;;;;;;5034374;28;20291;-76
2022/07/03 09:17:17;;;;;;;2.73;1.10;;;22.10;99.90;;;;;;5034801;28;20161;-76
2022/07/03 09:19:43;;;;;;;1.70;1.30;;;22.20;54.30;;;;;;5034471;28;20177;-76
2022/07/03 09:22:21;;;;;;;3.57;1.43;;;22.30;44.00;;;;;;5034621;28;20199;-76
2022/07/03 09:24:49;;;;;;;2.73;1.33;;;22.30;16.30;;;;;;5034470;28;20191;-76
2022/07/03 09:27:19;;;;;;;3.27;1.30;;;22.30;33.50;;;;;;5034586;28;20164;-76
2022/07/03 09:29:57;;;;;;;2.37;1.30;;;22.30;62.90;;;;;;5016623;28;20175;-76
2022/07/03 09:32:23;;;;;;;2.37;1.27;;;22.30;82.00;;;;;;5034284;28;20198;-76
2022/07/03 09:34:49;;;;;;;2.23;1.50;;;22.40;50.80;;;;;;5016406;28;20231;-76
2022/07/03 09:37:24;;;;;;;4.73;1.60;;;22.30;99.90;;;;;;5033546;28;20179;-76
2022/07/03 09:39:57;;;;;;;4.40;1.70;;;22.40;99.90;;;;;;5034480;28;20234;-76
2022/07/03 09:42:22;;;;;;;4.83;1.60;;;22.50;99.90;;;;;;5034115;28;20584;-76
2022/07/03 09:44:48;;;;;;;1.83;1.30;;;22.50;99.90;;;;;;5032602;28;20278;-75
2022/07/03 09:47:20;;;;;;;3.43;1.47;;;22.50;99.90;;;;;;5034449;28;20180;-76
2022/07/03 09:49:55;;;;;;;2.33;1.80;;;22.50;99.90;;;;;;5033917;28;20272;-75
2022/07/03 09:52:43;;;;;;;3.50;1.80;;;22.40;99.90;;;;;;5034158;28;20152;-76
2022/07/03 09:55:09;;;;;;;6.67;2.50;;;22.40;99.90;;;;;;5033864;28;20224;-76
2022/07/03 09:57:40;;;;;;;2.37;1.73;;;22.40;99.90;;;;;;5034348;28;20183;-76
2022/07/03 10:00:20;;;;;;;2.47;1.60;;;22.60;99.90;;;;;;5032414;28;20595;-76
2022/07/03 10:03:05;;;;;;;3.33;1.67;;;22.50;99.90;;;;;;5033978;28;20176;-76
2022/07/03 10:05:35;;;;;;;1.50;1.40;;;22.60;99.90;;;;;;5033753;28;20254;-75
2022/07/03 10:08:10;;;;;;;3.37;1.80;;;22.70;99.90;;;;;;5032343;28;20160;-76
2022/07/03 10:10:38;;;;;;;3.37;1.23;;;22.70;94.20;;;;;;5033586;28;20149;-76
2022/07/03 10:13:04;;;;;;;2.70;1.37;;;22.70;99.90;;;;;;5015754;28;20684;-76
2022/07/03 10:15:31;;;;;;;2.97;1.60;;;22.80;91.30;;;;;;5015556;28;20248;-74
2022/07/03 10:17:59;;;;;;;2.67;1.47;;;22.70;99.90;;;;;;5015736;28;20230;-76
2022/07/03 10:20:43;;;;;;;3.63;1.47;;;22.70;99.90;;;;;;5033595;28;20207;-76
2022/07/03 10:23:09;;;;;;;2.33;1.33;;;22.80;99.90;;;;;;5015549;28;20167;-76
2022/07/03 10:25:35;;;;;;;1.80;1.50;;;22.90;99.90;;;;;;5033408;28;20235;-76
2022/07/03 10:28:01;;;;;;;4.00;1.60;;;22.90;99.90;;;;;;5033244;28;20203;-75
2022/07/03 10:30:27;;;;;;;2.00;1.40;;;22.90;16.20;;;;;;5031956;28;20276;-76
2022/07/03 10:32:55;;;;;;;3.23;1.30;;;22.80;1.00;;;;;;5033201;28;20173;-74
2022/07/03 10:35:33;;;;;;;4.53;1.90;;;22.90;99.90;;;;;;5033423;28;20201;-76
2022/07/03 10:38:02;;;;;;;1.50;1.30;;;23.00;99.90;;;;;;5033254;28;20187;-76
2022/07/03 10:46:33;;;;;;;3.00;1.60;;;23.10;99.90;;;;;;5033416;28;20223;-75
2022/07/03 10:49:10;;;;;;;3.60;1.40;;;23.20;99.90;;;;;;5032904;28;20544;-76
2022/07/03 10:51:45;;;;;;;2.67;1.10;;;23.40;99.90;;;;;;5033008;28;20179;-76
2022/07/03 10:54:14;;;;;;;1.87;1.10;;;23.50;99.90;;;;;;5032251;28;20168;-77
2022/07/03 10:56:58;;;;;;;2.93;1.37;;;23.60;99.90;;;;;;5032516;28;20732;-75
2022/07/03 10:59:36;;;;;;;2.47;1.53;;;23.70;99.90;;;;;;5015191;28;20202;-76
2022/07/03 11:02:20;;;;;;;2.47;1.40;;;23.60;99.90;;;;;;5033050;28;20204;-76
2022/07/03 11:05:07;;;;;;;6.70;1.37;;;23.60;99.90;;;;;;5032726;28;20219;-75
2022/07/03 11:07:40;;;;;;;5.20;1.17;;;23.60;99.90;;;;;;5019886;28;20184;-73
2022/07/03 11:10:14;;;;;;;5.30;1.60;;;23.70;99.90;;;;;;5014907;28;20259;-77
2022/07/03 11:13:00;;;;;;;1.47;1.20;;;23.70;99.90;;;;;;5014920;28;20241;-76
2022/07/03 11:15:53;;;;;;;5.63;1.20;;;23.70;87.60;;;;;;5064505;22;20247;-76
2022/07/03 11:18:34;;;;;;;2.60;1.00;;;23.70;85.60;;;;;;5041126;28;20183;-76
2022/07/03 11:21:15;;;;;;;2.67;1.13;;;23.80;99.90;;;;;;5059554;28;20168;-76
2022/07/03 11:24:02;;;;;;;1.40;1.20;;;23.90;99.90;;;;;;5058841;28;20152;-76
2022/07/03 11:26:28;;;;;;;2.07;1.30;;;23.80;99.90;;;;;;5040009;28;20203;-75
2022/07/03 11:28:54;;;;;;;3.80;1.40;;;23.90;99.90;;;;;;5057917;28;20668;-76
2022/07/03 11:31:22;;;;;;;2.93;1.37;;;23.90;99.90;;;;;;5040749;28;20178;-76
2022/07/03 11:33:50;;;;;;;2.93;1.40;;;23.90;99.90;;;;;;5059028;28;20637;-76
2022/07/03 11:36:15;;;;;;;2.00;1.10;;;24.00;99.90;;;;;;5040955;28;20256;-76
2022/07/03 11:38:46;;;;;;;3.73;1.67;;;24.10;99.90;;;;;;5059267;28;20695;-76
2022/07/03 11:41:15;;;;;;;2.13;1.00;;;24.10;99.90;;;;;;5059035;28;20172;-76
2022/07/03 11:43:52;;;;;;;2.73;1.20;;;24.20;99.90;;;;;;5041015;28;20183;-76
2022/07/03 11:46:22;;;;;;;1.57;1.07;;;24.20;99.90;;;;;;5040559;28;20211;-76
2022/07/03 11:48:48;;;;;;;6.03;1.40;;;24.30;99.90;;;;;;5058453;28;20168;-76
2022/07/03 11:51:14;;;;;;;4.87;1.20;;;24.20;99.90;;;;;;5058978;28;20254;-76
2022/07/03 11:53:41;;;;;;;2.53;1.00;;;24.30;99.90;;;;;;5059107;28;20175;-76
2022/07/03 11:56:11;;;;;;;1.37;0.93;;;24.20;99.90;;;;;;5058449;28;20192;-76
2022/07/03 11:58:50;;;;;;;2.93;1.20;;;24.20;99.90;;;;;;5040719;28;20187;-76
2022/07/03 12:01:27;;;;;;;1.07;0.87;;;24.20;99.90;;;;;;5062679;28;20205;-76
2022/07/03 12:04:14;;;;;;;1.93;1.30;;;24.20;99.90;;;;;;5063388;28;20213;-75
2022/07/03 12:06:43;;;;;;;2.20;1.27;;;24.30;99.90;;;;;;5043637;28;20223;-76
2022/07/03 12:09:35;;;;;;;5.60;1.50;;;24.40;99.90;;;;;;5045198;28;20612;-76
2022/07/03 12:12:10;;;;;;;2.13;0.80;;;24.60;99.90;;;;;;5044813;28;20171;-76
2022/07/03 12:14:44;;;;;;;2.80;0.93;;;24.60;99.90;;;;;;5062852;28;20164;-76
2022/07/03 12:17:30;;;;;;;2.53;1.13;;;24.70;99.90;;;;;;5044472;28;20274;-76
2022/07/03 12:20:00;;;;;;;3.03;1.10;;;24.50;99.90;;;;;;5062162;28;20586;-76
2022/07/03 12:22:28;;;;;;;1.13;0.90;;;24.80;99.90;;;;;;5044969;28;20179;-77
2022/07/03 12:25:14;;;;;;;2.80;1.20;;;24.80;99.90;;;;;;5062476;28;20235;-76
2022/07/03 12:27:42;;;;;;;7.63;1.13;;;24.80;99.90;;;;;;5062142;28;20653;-76
2022/07/03 12:30:10;;;;;;;2.55;1.10;;;24.80;99.90;;;;;;5061772;28;20183;-76
2022/07/03 12:32:37;;;;;;;3.03;1.10;;;24.70;99.90;;;;;;5043542;28;20183;-76
2022/07/03 12:35:03;;;;;;;2.43;1.20;;;24.70;99.90;;;;;;5061591;28;20223;-76
2022/07/03 12:37:33;;;;;;;2.27;1.20;;;24.70;99.90;;;;;;5043382;28;20183;-76
2022/07/03 12:39:59;;;;;;;4.77;1.00;;;24.80;99.90;;;;;;5061335;28;20262;-76
2022/07/03 12:42:25;;;;;;;1.67;0.80;;;24.90;99.90;;;;;;5060739;28;20679;-77
2022/07/03 12:44:58;;;;;;;2.70;1.20;;;24.90;99.90;;;;;;5043082;28;20187;-76
2022/07/03 12:47:25;;;;;;;2.45;0.80;;;24.90;99.90;;;;;;5042944;28;20179;-75
2022/07/03 12:50:02;;;;;;;1.37;0.93;;;25.00;99.90;;;;;;5043886;28;20183;-76
2022/07/03 12:52:29;;;;;;;1.58;0.70;;;25.00;99.90;;;;;;5043308;28;20167;-76
2022/07/03 12:54:55;;;;;;;2.70;1.15;;;24.80;99.90;;;;;;5061223;28;20168;-76
2022/07/03 13:00:11;;;;;;;2.67;1.30;;;25.00;99.90;;;;;;5061056;28;20163;-77
2022/07/03 13:02:40;;;;;;;1.73;1.00;;;24.90;99.90;;;;;;5042153;28;20180;-76
2022/07/03 13:05:23;;;;;;;2.15;1.10;;;25.00;99.90;;;;;;5060289;28;20207;-76
2022/07/03 13:07:51;;;;;;;4.65;1.60;;;24.90;99.90;;;;;;5060872;28;20203;-76
2022/07/03 13:10:19;;;;;;;2.20;0.82;;;25.00;99.90;;;;;;5061598;28;20243;-75
2022/07/03 13:12:56;;;;;;;2.73;0.93;;;25.10;99.90;;;;;;5059719;28;20180;-76